sensor_id;sensor_type;location;lat;lon;timestamp;P1;durP1;ratioP1;P2;durP2;ratioP2
49812;SDS011;35706;52.100;5.056;2023-08-06T00:00:06;1.05;;;0.60;;
49812;SDS011;35706;52.100;5.056;2023-08-06T00:01:08;1.30;;;0.70;;
49812;SDS011;35706;52.100;5.056;2023-08-06T00:02:08;1.08;;;0.55;;
49812;SDS011;35706;52.100;5.056;2023-08-06T00:03:09;1.30;;;0.77;;
49812;SDS011;35706;52.100;5.056;2023-08-06T00:04:09;1.80;;;0.70;;
49812;SDS011;35706;52.100;5.056;2023-08-06T00:05:09;3.28;;;0.90;;
49812;SDS011;35706;52.100;5.056;2023-08-06T00:06:10;3.60;;;0.85;;
49812;SDS011;35706;52.100;5.056;2023-08-06T00:07:10;1.67;;;0.80;;
49812;SDS011;35706;52.100;5.056;2023-08-06T00:08:10;3.15;;;0.80;;
49812;SDS011;35706;52.100;5.056;2023-08-06T00:09:11;2.35;;;0.90;;
49812;SDS011;35706;52.100;5.056;2023-08-06T00:10:11;1.42;;;0.80;;
49812;SDS011;35706;52.100;5.056;2023-08-06T00:11:11;2.10;;;0.90;;
49812;SDS011;35706;52.100;5.056;2023-08-06T00:12:12;2.97;;;1.00;;
49812;SDS011;35706;52.100;5.056;2023-08-06T00:13:13;1.80;;;0.80;;
49812;SDS011;35706;52.100;5.056;2023-08-06T00:14:13;1.63;;;1.05;;
49812;SDS011;35706;52.100;5.056;2023-08-06T00:15:15;1.38;;;0.60;;
49812;SDS011;35706;52.100;5.056;2023-08-06T00:16:15;2.28;;;0.60;;
49812;SDS011;35706;52.100;5.056;2023-08-06T00:17:16;2.40;;;0.80;;
49812;SDS011;35706;52.100;5.056;2023-08-06T00:18:16;1.55;;;0.82;;
49812;SDS011;35706;52.100;5.056;2023-08-06T00:19:16;2.97;;;1.00;;
49812;SDS011;35706;52.100;5.056;2023-08-06T00:20:17;2.15;;;0.77;;
49812;SDS011;35706;52.100;5.056;2023-08-06T00:21:17;1.80;;;0.80;;
49812;SDS011;35706;52.100;5.056;2023-08-06T00:22:17;2.67;;;0.70;;
49812;SDS011;35706;52.100;5.056;2023-08-06T00:23:18;1.40;;;0.80;;
49812;SDS011;35706;52.100;5.056;2023-08-06T00:24:18;2.95;;;0.70;;
49812;SDS011;35706;52.100;5.056;2023-08-06T00:25:18;1.80;;;0.80;;
49812;SDS011;35706;52.100;5.056;2023-08-06T00:26:19;1.20;;;0.70;;
49812;SDS011;35706;52.100;5.056;2023-08-06T00:27:20;1.55;;;0.80;;
49812;SDS011;35706;52.100;5.056;2023-08-06T00:28:20;1.20;;;0.70;;
49812;SDS011;35706;52.100;5.056;2023-08-06T00:29:20;1.20;;;0.65;;
49812;SDS011;35706;52.100;5.056;2023-08-06T00:30:21;3.05;;;0.70;;
49812;SDS011;35706;52.100;5.056;2023-08-06T00:31:21;1.23;;;0.65;;
49812;SDS011;35706;52.100;5.056;2023-08-06T00:32:21;1.40;;;0.60;;
49812;SDS011;35706;52.100;5.056;2023-08-06T00:33:22;1.98;;;0.65;;
49812;SDS011;35706;52.100;5.056;2023-08-06T00:34:23;1.27;;;0.50;;
49812;SDS011;35706;52.100;5.056;2023-08-06T00:35:23;1.40;;;0.70;;
49812;SDS011;35706;52.100;5.056;2023-08-06T00:36:24;2.20;;;0.70;;
49812;SDS011;35706;52.100;5.056;2023-08-06T00:37:24;1.80;;;0.80;;
49812;SDS011;35706;52.100;5.056;2023-08-06T00:38:24;1.27;;;0.63;;
49812;SDS011;35706;52.100;5.056;2023-08-06T00:39:24;0.90;;;0.60;;
49812;SDS011;35706;52.100;5.056;2023-08-06T00:40:25;1.58;;;0.70;;
49812;SDS011;35706;52.100;5.056;2023-08-06T00:41:28;1.50;;;0.70;;
49812;SDS011;35706;52.100;5.056;2023-08-06T00:42:28;2.20;;;0.60;;
49812;SDS011;35706;52.100;5.056;2023-08-06T00:43:29;1.92;;;0.70;;
49812;SDS011;35706;52.100;5.056;2023-08-06T00:44:29;2.92;;;0.60;;
49812;SDS011;35706;52.100;5.056;2023-08-06T00:45:29;2.13;;;0.63;;
49812;SDS011;35706;52.100;5.056;2023-08-06T00:46:31;17.35;;;2.40;;
49812;SDS011;35706;52.100;5.056;2023-08-06T00:47:33;160.60;;;29.13;;
49812;SDS011;35706;52.100;5.056;2023-08-06T00:48:33;205.10;;;40.78;;
49812;SDS011;35706;52.100;5.056;2023-08-06T00:49:35;357.75;;;68.30;;
49812;SDS011;35706;52.100;5.056;2023-08-06T00:50:36;483.52;;;93.13;;
49812;SDS011;35706;52.100;5.056;2023-08-06T00:51:36;506.60;;;97.20;;
49812;SDS011;35706;52.100;5.056;2023-08-06T00:52:37;413.88;;;78.55;;
49812;SDS011;35706;52.100;5.056;2023-08-06T00:53:37;291.65;;;55.78;;
49812;SDS011;35706;52.100;5.056;2023-08-06T00:54:39;229.00;;;45.25;;
49812;SDS011;35706;52.100;5.056;2023-08-06T00:55:39;222.45;;;42.95;;
49812;SDS011;35706;52.100;5.056;2023-08-06T00:56:40;193.80;;;37.20;;
49812;SDS011;35706;52.100;5.056;2023-08-06T00:57:42;174.00;;;34.42;;
49812;SDS011;35706;52.100;5.056;2023-08-06T00:58:42;162.45;;;28.75;;
49812;SDS011;35706;52.100;5.056;2023-08-06T00:59:43;126.43;;;23.00;;
49812;SDS011;35706;52.100;5.056;2023-08-06T01:00:44;102.15;;;17.30;;
49812;SDS011;35706;52.100;5.056;2023-08-06T01:01:45;91.50;;;18.92;;
49812;SDS011;35706;52.100;5.056;2023-08-06T01:02:45;86.25;;;14.93;;
49812;SDS011;35706;52.100;5.056;2023-08-06T01:03:46;59.75;;;10.65;;
49812;SDS011;35706;52.100;5.056;2023-08-06T01:04:46;43.10;;;7.93;;
49812;SDS011;35706;52.100;5.056;2023-08-06T01:05:46;24.85;;;4.45;;
49812;SDS011;35706;52.100;5.056;2023-08-06T01:06:48;24.75;;;4.32;;
49812;SDS011;35706;52.100;5.056;2023-08-06T01:12:22;16.83;;;3.53;;
49812;SDS011;35706;52.100;5.056;2023-08-06T01:13:42;15.30;;;2.33;;
49812;SDS011;35706;52.100;5.056;2023-08-06T01:14:49;13.43;;;1.88;;
49812;SDS011;35706;52.100;5.056;2023-08-06T01:15:58;15.30;;;2.03;;
49812;SDS011;35706;52.100;5.056;2023-08-06T01:17:02;6.25;;;1.35;;
49812;SDS011;35706;52.100;5.056;2023-08-06T01:18:04;4.40;;;1.13;;
49812;SDS011;35706;52.100;5.056;2023-08-06T01:19:05;6.47;;;1.40;;
49812;SDS011;35706;52.100;5.056;2023-08-06T01:20:05;4.80;;;1.38;;
49812;SDS011;35706;52.100;5.056;2023-08-06T01:21:06;7.47;;;1.30;;
49812;SDS011;35706;52.100;5.056;2023-08-06T01:22:06;4.65;;;0.93;;
49812;SDS011;35706;52.100;5.056;2023-08-06T01:23:06;4.35;;;0.80;;
49812;SDS011;35706;52.100;5.056;2023-08-06T01:24:07;3.17;;;0.93;;
49812;SDS011;35706;52.100;5.056;2023-08-06T01:25:08;4.65;;;1.02;;
49812;SDS011;35706;52.100;5.056;2023-08-06T01:26:16;3.03;;;0.90;;
49812;SDS011;35706;52.100;5.056;2023-08-06T01:27:25;1.67;;;0.75;;
49812;SDS011;35706;52.100;5.056;2023-08-06T01:30:03;2.05;;;0.65;;
49812;SDS011;35706;52.100;5.056;2023-08-06T01:31:04;1.40;;;0.50;;
49812;SDS011;35706;52.100;5.056;2023-08-06T01:32:11;3.60;;;0.70;;
49812;SDS011;35706;52.100;5.056;2023-08-06T01:33:14;2.22;;;0.60;;
49812;SDS011;35706;52.100;5.056;2023-08-06T01:34:22;1.90;;;0.60;;
49812;SDS011;35706;52.100;5.056;2023-08-06T01:35:26;1.52;;;0.60;;
49812;SDS011;35706;52.100;5.056;2023-08-06T01:36:29;1.23;;;0.60;;
49812;SDS011;35706;52.100;5.056;2023-08-06T01:37:30;2.03;;;0.70;;
49812;SDS011;35706;52.100;5.056;2023-08-06T01:38:31;0.90;;;0.50;;
49812;SDS011;35706;52.100;5.056;2023-08-06T01:39:34;3.65;;;0.80;;
49812;SDS011;35706;52.100;5.056;2023-08-06T01:40:35;3.35;;;0.63;;
49812;SDS011;35706;52.100;5.056;2023-08-06T01:41:35;1.80;;;0.60;;
49812;SDS011;35706;52.100;5.056;2023-08-06T01:42:36;1.98;;;0.60;;
49812;SDS011;35706;52.100;5.056;2023-08-06T01:43:36;1.15;;;0.60;;
49812;SDS011;35706;52.100;5.056;2023-08-06T01:44:36;4.38;;;0.60;;
49812;SDS011;35706;52.100;5.056;2023-08-06T01:45:37;2.70;;;0.60;;
49812;SDS011;35706;52.100;5.056;2023-08-06T01:46:37;0.90;;;0.55;;
49812;SDS011;35706;52.100;5.056;2023-08-06T01:47:37;1.95;;;0.63;;
49812;SDS011;35706;52.100;5.056;2023-08-06T01:48:38;0.90;;;0.50;;
49812;SDS011;35706;52.100;5.056;2023-08-06T01:49:38;1.20;;;0.60;;
49812;SDS011;35706;52.100;5.056;2023-08-06T01:50:38;2.05;;;0.63;;
49812;SDS011;35706;52.100;5.056;2023-08-06T01:51:39;0.90;;;0.60;;
49812;SDS011;35706;52.100;5.056;2023-08-06T01:52:39;3.50;;;0.70;;
49812;SDS011;35706;52.100;5.056;2023-08-06T01:53:39;1.33;;;0.60;;
49812;SDS011;35706;52.100;5.056;2023-08-06T01:54:39;4.15;;;0.60;;
49812;SDS011;35706;52.100;5.056;2023-08-06T01:55:40;2.25;;;0.70;;
49812;SDS011;35706;52.100;5.056;2023-08-06T01:56:40;1.48;;;0.60;;
49812;SDS011;35706;52.100;5.056;2023-08-06T01:57:40;1.00;;;0.60;;
49812;SDS011;35706;52.100;5.056;2023-08-06T01:58:41;1.40;;;0.70;;
49812;SDS011;35706;52.100;5.056;2023-08-06T01:59:41;1.20;;;0.60;;
49812;SDS011;35706;52.100;5.056;2023-08-06T02:00:42;1.20;;;0.50;;
49812;SDS011;35706;52.100;5.056;2023-08-06T02:01:42;2.35;;;0.90;;
49812;SDS011;35706;52.100;5.056;2023-08-06T02:02:42;1.40;;;0.57;;
49812;SDS011;35706;52.100;5.056;2023-08-06T02:03:42;1.17;;;0.60;;
49812;SDS011;35706;52.100;5.056;2023-08-06T02:04:43;2.90;;;0.70;;
49812;SDS011;35706;52.100;5.056;2023-08-06T02:05:43;1.13;;;0.60;;
49812;SDS011;35706;52.100;5.056;2023-08-06T02:06:43;2.50;;;0.60;;
49812;SDS011;35706;52.100;5.056;2023-08-06T02:07:44;1.90;;;0.70;;
49812;SDS011;35706;52.100;5.056;2023-08-06T02:08:44;1.00;;;0.60;;
49812;SDS011;35706;52.100;5.056;2023-08-06T02:09:45;1.33;;;0.65;;
49812;SDS011;35706;52.100;5.056;2023-08-06T02:10:45;1.27;;;0.70;;
49812;SDS011;35706;52.100;5.056;2023-08-06T02:11:45;1.33;;;0.60;;
49812;SDS011;35706;52.100;5.056;2023-08-06T02:12:45;2.72;;;0.70;;
49812;SDS011;35706;52.100;5.056;2023-08-06T02:13:46;3.35;;;0.90;;
49812;SDS011;35706;52.100;5.056;2023-08-06T02:14:46;1.67;;;0.60;;
49812;SDS011;35706;52.100;5.056;2023-08-06T02:15:46;2.67;;;0.90;;
49812;SDS011;35706;52.100;5.056;2023-08-06T02:16:50;2.47;;;0.70;;
49812;SDS011;35706;52.100;5.056;2023-08-06T02:17:50;1.60;;;0.60;;
49812;SDS011;35706;52.100;5.056;2023-08-06T02:18:50;2.10;;;0.70;;
49812;SDS011;35706;52.100;5.056;2023-08-06T02:19:51;1.30;;;0.60;;
49812;SDS011;35706;52.100;5.056;2023-08-06T02:20:54;3.42;;;0.70;;
49812;SDS011;35706;52.100;5.056;2023-08-06T02:21:58;1.88;;;0.60;;
49812;SDS011;35706;52.100;5.056;2023-08-06T02:22:59;2.33;;;0.80;;
49812;SDS011;35706;52.100;5.056;2023-08-06T02:23:59;2.53;;;0.80;;
49812;SDS011;35706;52.100;5.056;2023-08-06T02:24:59;1.55;;;0.60;;
49812;SDS011;35706;52.100;5.056;2023-08-06T02:26:00;3.08;;;0.82;;
49812;SDS011;35706;52.100;5.056;2023-08-06T02:27:01;1.40;;;0.70;;
49812;SDS011;35706;52.100;5.056;2023-08-06T02:28:02;2.35;;;0.70;;
49812;SDS011;35706;52.100;5.056;2023-08-06T02:29:02;2.35;;;0.70;;
49812;SDS011;35706;52.100;5.056;2023-08-06T02:30:03;1.27;;;0.70;;
49812;SDS011;35706;52.100;5.056;2023-08-06T02:31:04;3.90;;;1.08;;
49812;SDS011;35706;52.100;5.056;2023-08-06T02:32:06;3.50;;;1.02;;
49812;SDS011;35706;52.100;5.056;2023-08-06T02:33:07;3.75;;;1.10;;
49812;SDS011;35706;52.100;5.056;2023-08-06T02:34:07;2.08;;;1.20;;
49812;SDS011;35706;52.100;5.056;2023-08-06T02:35:08;2.00;;;1.45;;
49812;SDS011;35706;52.100;5.056;2023-08-06T02:36:08;3.92;;;1.30;;
49812;SDS011;35706;52.100;5.056;2023-08-06T02:37:09;3.92;;;1.65;;
49812;SDS011;35706;52.100;5.056;2023-08-06T02:38:09;2.03;;;1.30;;
49812;SDS011;35706;52.100;5.056;2023-08-06T02:39:09;2.50;;;1.10;;
49812;SDS011;35706;52.100;5.056;2023-08-06T02:40:10;6.28;;;1.92;;
49812;SDS011;35706;52.100;5.056;2023-08-06T02:41:10;3.38;;;1.75;;
49812;SDS011;35706;52.100;5.056;2023-08-06T02:42:11;3.20;;;2.50;;
49812;SDS011;35706;52.100;5.056;2023-08-06T02:43:11;4.40;;;1.70;;
49812;SDS011;35706;52.100;5.056;2023-08-06T02:44:12;1.92;;;1.50;;
49812;SDS011;35706;52.100;5.056;2023-08-06T02:45:12;3.75;;;2.10;;
49812;SDS011;35706;52.100;5.056;2023-08-06T02:46:12;4.00;;;1.70;;
49812;SDS011;35706;52.100;5.056;2023-08-06T02:47:13;4.85;;;2.10;;
49812;SDS011;35706;52.100;5.056;2023-08-06T02:48:13;4.38;;;2.00;;
49812;SDS011;35706;52.100;5.056;2023-08-06T02:49:13;5.43;;;2.42;;
49812;SDS011;35706;52.100;5.056;2023-08-06T02:50:14;3.90;;;1.98;;
49812;SDS011;35706;52.100;5.056;2023-08-06T02:51:14;5.38;;;2.78;;
49812;SDS011;35706;52.100;5.056;2023-08-06T02:52:14;3.83;;;2.08;;
49812;SDS011;35706;52.100;5.056;2023-08-06T02:53:15;6.20;;;2.17;;
49812;SDS011;35706;52.100;5.056;2023-08-06T02:54:15;6.40;;;2.10;;
49812;SDS011;35706;52.100;5.056;2023-08-06T02:55:15;5.95;;;2.55;;
49812;SDS011;35706;52.100;5.056;2023-08-06T02:56:16;7.00;;;2.78;;
49812;SDS011;35706;52.100;5.056;2023-08-06T02:57:16;3.67;;;2.75;;
49812;SDS011;35706;52.100;5.056;2023-08-06T02:58:16;3.17;;;2.75;;
49812;SDS011;35706;52.100;5.056;2023-08-06T02:59:17;5.20;;;3.13;;
49812;SDS011;35706;52.100;5.056;2023-08-06T03:00:17;4.05;;;3.10;;
49812;SDS011;35706;52.100;5.056;2023-08-06T03:01:18;7.20;;;3.47;;
49812;SDS011;35706;52.100;5.056;2023-08-06T03:02:18;2.90;;;2.50;;
49812;SDS011;35706;52.100;5.056;2023-08-06T03:03:18;3.08;;;2.70;;
49812;SDS011;35706;52.100;5.056;2023-08-06T03:04:18;8.65;;;3.40;;
49812;SDS011;35706;52.100;5.056;2023-08-06T03:05:19;5.60;;;3.60;;
49812;SDS011;35706;52.100;5.056;2023-08-06T03:06:19;5.05;;;3.78;;
49812;SDS011;35706;52.100;5.056;2023-08-06T03:07:20;4.97;;;3.35;;
49812;SDS011;35706;52.100;5.056;2023-08-06T03:08:20;7.07;;;4.38;;
49812;SDS011;35706;52.100;5.056;2023-08-06T03:09:23;4.05;;;3.67;;
49812;SDS011;35706;52.100;5.056;2023-08-06T03:10:24;4.20;;;3.80;;
49812;SDS011;35706;52.100;5.056;2023-08-06T03:11:24;6.32;;;3.58;;
49812;SDS011;35706;52.100;5.056;2023-08-06T03:12:24;4.85;;;3.83;;
49812;SDS011;35706;52.100;5.056;2023-08-06T03:13:24;5.10;;;3.67;;
49812;SDS011;35706;52.100;5.056;2023-08-06T03:14:25;4.30;;;3.90;;
49812;SDS011;35706;52.100;5.056;2023-08-06T03:15:25;4.53;;;3.50;;
49812;SDS011;35706;52.100;5.056;2023-08-06T03:16:25;4.68;;;4.05;;
49812;SDS011;35706;52.100;5.056;2023-08-06T03:17:26;3.58;;;3.28;;
49812;SDS011;35706;52.100;5.056;2023-08-06T03:18:26;4.00;;;3.63;;
49812;SDS011;35706;52.100;5.056;2023-08-06T03:19:27;4.28;;;3.47;;
49812;SDS011;35706;52.100;5.056;2023-08-06T03:20:27;5.47;;;4.20;;
49812;SDS011;35706;52.100;5.056;2023-08-06T03:21:27;4.53;;;4.03;;
49812;SDS011;35706;52.100;5.056;2023-08-06T03:22:28;5.65;;;4.03;;
49812;SDS011;35706;52.100;5.056;2023-08-06T03:23:28;6.60;;;4.40;;
49812;SDS011;35706;52.100;5.056;2023-08-06T03:24:28;4.25;;;3.85;;
49812;SDS011;35706;52.100;5.056;2023-08-06T03:25:29;5.00;;;3.85;;
49812;SDS011;35706;52.100;5.056;2023-08-06T03:26:29;5.28;;;4.13;;
49812;SDS011;35706;52.100;5.056;2023-08-06T03:27:29;5.78;;;4.32;;
49812;SDS011;35706;52.100;5.056;2023-08-06T03:28:30;8.63;;;3.88;;
49812;SDS011;35706;52.100;5.056;2023-08-06T03:29:30;5.45;;;3.80;;
49812;SDS011;35706;52.100;5.056;2023-08-06T03:30:30;4.53;;;3.88;;
49812;SDS011;35706;52.100;5.056;2023-08-06T03:31:31;6.75;;;4.10;;
49812;SDS011;35706;52.100;5.056;2023-08-06T03:32:31;6.22;;;4.60;;
49812;SDS011;35706;52.100;5.056;2023-08-06T03:33:31;5.55;;;4.53;;
49812;SDS011;35706;52.100;5.056;2023-08-06T03:34:32;6.32;;;4.97;;
49812;SDS011;35706;52.100;5.056;2023-08-06T03:35:32;9.18;;;4.85;;
49812;SDS011;35706;52.100;5.056;2023-08-06T03:36:32;6.65;;;4.63;;
49812;SDS011;35706;52.100;5.056;2023-08-06T03:37:33;6.78;;;4.40;;
49812;SDS011;35706;52.100;5.056;2023-08-06T03:38:33;6.40;;;4.40;;
49812;SDS011;35706;52.100;5.056;2023-08-06T03:39:33;5.22;;;4.72;;
49812;SDS011;35706;52.100;5.056;2023-08-06T03:40:34;4.97;;;4.45;;
49812;SDS011;35706;52.100;5.056;2023-08-06T03:41:36;7.68;;;4.45;;
49812;SDS011;35706;52.100;5.056;2023-08-06T03:42:36;4.85;;;4.45;;
49812;SDS011;35706;52.100;5.056;2023-08-06T03:43:36;4.65;;;4.25;;
49812;SDS011;35706;52.100;5.056;2023-08-06T03:44:37;5.40;;;4.85;;
49812;SDS011;35706;52.100;5.056;2023-08-06T03:45:37;4.80;;;4.20;;
49812;SDS011;35706;52.100;5.056;2023-08-06T03:46:37;5.32;;;4.85;;
49812;SDS011;35706;52.100;5.056;2023-08-06T03:47:38;7.88;;;5.10;;
49812;SDS011;35706;52.100;5.056;2023-08-06T03:48:38;5.97;;;4.68;;
49812;SDS011;35706;52.100;5.056;2023-08-06T03:49:38;5.63;;;5.13;;
49812;SDS011;35706;52.100;5.056;2023-08-06T03:50:39;5.13;;;4.65;;
49812;SDS011;35706;52.100;5.056;2023-08-06T03:51:39;5.05;;;4.63;;
49812;SDS011;35706;52.100;5.056;2023-08-06T03:52:39;8.43;;;4.68;;
49812;SDS011;35706;52.100;5.056;2023-08-06T03:53:40;4.95;;;4.43;;
49812;SDS011;35706;52.100;5.056;2023-08-06T03:54:40;4.93;;;4.43;;
49812;SDS011;35706;52.100;5.056;2023-08-06T03:55:43;5.45;;;4.95;;
49812;SDS011;35706;52.100;5.056;2023-08-06T03:56:43;5.65;;;4.90;;
49812;SDS011;35706;52.100;5.056;2023-08-06T03:57:43;6.25;;;4.80;;
49812;SDS011;35706;52.100;5.056;2023-08-06T03:58:43;5.28;;;4.70;;
49812;SDS011;35706;52.100;5.056;2023-08-06T03:59:44;5.55;;;5.15;;
49812;SDS011;35706;52.100;5.056;2023-08-06T04:00:44;5.50;;;5.10;;
49812;SDS011;35706;52.100;5.056;2023-08-06T04:01:45;5.63;;;4.97;;
49812;SDS011;35706;52.100;5.056;2023-08-06T04:02:45;8.85;;;5.72;;
49812;SDS011;35706;52.100;5.056;2023-08-06T04:03:45;5.50;;;5.00;;
49812;SDS011;35706;52.100;5.056;2023-08-06T04:04:46;5.60;;;5.20;;
49812;SDS011;35706;52.100;5.056;2023-08-06T04:05:46;5.80;;;5.30;;
49812;SDS011;35706;52.100;5.056;2023-08-06T04:06:46;8.65;;;5.93;;
49812;SDS011;35706;52.100;5.056;2023-08-06T04:07:46;6.03;;;5.53;;
49812;SDS011;35706;52.100;5.056;2023-08-06T04:08:47;6.13;;;5.53;;
49812;SDS011;35706;52.100;5.056;2023-08-06T04:10:00;6.00;;;5.50;;
49812;SDS011;35706;52.100;5.056;2023-08-06T04:11:01;5.32;;;4.93;;
49812;SDS011;35706;52.100;5.056;2023-08-06T04:12:02;6.10;;;5.50;;
49812;SDS011;35706;52.100;5.056;2023-08-06T04:13:04;5.63;;;5.22;;
49812;SDS011;35706;52.100;5.056;2023-08-06T04:14:05;7.18;;;5.22;;
49812;SDS011;35706;52.100;5.056;2023-08-06T04:15:05;5.47;;;5.07;;
49812;SDS011;35706;52.100;5.056;2023-08-06T04:16:06;5.88;;;5.45;;
49812;SDS011;35706;52.100;5.056;2023-08-06T04:17:06;6.35;;;5.85;;
49812;SDS011;35706;52.100;5.056;2023-08-06T04:18:06;5.68;;;5.28;;
49812;SDS011;35706;52.100;5.056;2023-08-06T04:19:07;6.63;;;6.15;;
49812;SDS011;35706;52.100;5.056;2023-08-06T04:20:07;5.82;;;5.40;;
49812;SDS011;35706;52.100;5.056;2023-08-06T04:21:08;6.93;;;6.38;;
49812;SDS011;35706;52.100;5.056;2023-08-06T04:22:08;6.80;;;5.97;;
49812;SDS011;35706;52.100;5.056;2023-08-06T04:23:08;6.70;;;6.30;;
49812;SDS011;35706;52.100;5.056;2023-08-06T04:24:09;6.53;;;6.03;;
49812;SDS011;35706;52.100;5.056;2023-08-06T04:25:09;6.25;;;5.75;;
49812;SDS011;35706;52.100;5.056;2023-08-06T04:26:10;6.47;;;5.97;;
49812;SDS011;35706;52.100;5.056;2023-08-06T04:27:10;6.28;;;5.78;;
49812;SDS011;35706;52.100;5.056;2023-08-06T04:28:11;6.35;;;5.75;;
49812;SDS011;35706;52.100;5.056;2023-08-06T04:29:11;5.40;;;5.00;;
49812;SDS011;35706;52.100;5.056;2023-08-06T04:30:12;5.18;;;4.82;;
49812;SDS011;35706;52.100;5.056;2023-08-06T04:31:12;5.50;;;5.00;;
49812;SDS011;35706;52.100;5.056;2023-08-06T04:32:12;4.97;;;4.53;;
49812;SDS011;35706;52.100;5.056;2023-08-06T04:33:13;4.78;;;4.45;;
49812;SDS011;35706;52.100;5.056;2023-08-06T04:34:13;4.60;;;4.30;;
49812;SDS011;35706;52.100;5.056;2023-08-06T04:35:13;4.28;;;3.92;;
49812;SDS011;35706;52.100;5.056;2023-08-06T04:36:14;4.68;;;4.28;;
49812;SDS011;35706;52.100;5.056;2023-08-06T04:37:14;4.75;;;4.35;;
49812;SDS011;35706;52.100;5.056;2023-08-06T04:38:14;4.75;;;4.45;;
49812;SDS011;35706;52.100;5.056;2023-08-06T04:39:15;4.93;;;4.53;;
49812;SDS011;35706;52.100;5.056;2023-08-06T04:40:15;4.78;;;4.38;;
49812;SDS011;35706;52.100;5.056;2023-08-06T04:41:16;4.55;;;4.15;;
49812;SDS011;35706;52.100;5.056;2023-08-06T04:42:16;4.20;;;3.90;;
49812;SDS011;35706;52.100;5.056;2023-08-06T04:43:17;3.40;;;3.10;;
49812;SDS011;35706;52.100;5.056;2023-08-06T04:44:17;4.28;;;3.17;;
49812;SDS011;35706;52.100;5.056;2023-08-06T04:45:18;3.03;;;2.83;;
49812;SDS011;35706;52.100;5.056;2023-08-06T04:46:18;2.63;;;2.42;;
49812;SDS011;35706;52.100;5.056;2023-08-06T04:47:18;3.38;;;3.08;;
49812;SDS011;35706;52.100;5.056;2023-08-06T04:48:19;2.90;;;2.70;;
49812;SDS011;35706;52.100;5.056;2023-08-06T04:49:22;2.67;;;2.47;;
49812;SDS011;35706;52.100;5.056;2023-08-06T04:50:23;3.38;;;2.38;;
49812;SDS011;35706;52.100;5.056;2023-08-06T04:51:23;5.65;;;2.40;;
49812;SDS011;35706;52.100;5.056;2023-08-06T04:52:23;2.83;;;1.70;;
49812;SDS011;35706;52.100;5.056;2023-08-06T04:53:27;2.25;;;1.95;;
49812;SDS011;35706;52.100;5.056;2023-08-06T04:54:27;1.90;;;1.30;;
49812;SDS011;35706;52.100;5.056;2023-08-06T04:55:28;1.58;;;1.20;;
49812;SDS011;35706;52.100;5.056;2023-08-06T04:56:28;1.70;;;1.30;;
49812;SDS011;35706;52.100;5.056;2023-08-06T04:57:29;1.75;;;1.48;;
49812;SDS011;35706;52.100;5.056;2023-08-06T04:58:29;1.70;;;1.30;;
49812;SDS011;35706;52.100;5.056;2023-08-06T04:59:29;2.00;;;1.42;;
49812;SDS011;35706;52.100;5.056;2023-08-06T05:00:30;2.03;;;1.40;;
49812;SDS011;35706;52.100;5.056;2023-08-06T05:01:30;3.15;;;1.67;;
49812;SDS011;35706;52.100;5.056;2023-08-06T05:02:30;2.00;;;1.77;;
49812;SDS011;35706;52.100;5.056;2023-08-06T05:03:32;1.92;;;1.50;;
49812;SDS011;35706;52.100;5.056;2023-08-06T05:04:32;1.60;;;1.40;;
49812;SDS011;35706;52.100;5.056;2023-08-06T05:05:33;1.67;;;1.35;;
49812;SDS011;35706;52.100;5.056;2023-08-06T05:06:33;2.75;;;1.65;;
49812;SDS011;35706;52.100;5.056;2023-08-06T05:07:33;2.00;;;1.48;;
49812;SDS011;35706;52.100;5.056;2023-08-06T05:08:34;2.15;;;1.70;;
49812;SDS011;35706;52.100;5.056;2023-08-06T05:09:34;1.95;;;1.75;;
49812;SDS011;35706;52.100;5.056;2023-08-06T05:10:34;3.10;;;1.75;;
49812;SDS011;35706;52.100;5.056;2023-08-06T05:11:35;2.10;;;1.90;;
49812;SDS011;35706;52.100;5.056;2023-08-06T05:12:35;2.80;;;1.65;;
49812;SDS011;35706;52.100;5.056;2023-08-06T05:13:35;1.98;;;1.70;;
49812;SDS011;35706;52.100;5.056;2023-08-06T05:14:36;2.03;;;1.50;;
49812;SDS011;35706;52.100;5.056;2023-08-06T05:15:36;2.10;;;1.50;;
49812;SDS011;35706;52.100;5.056;2023-08-06T05:16:37;4.80;;;1.30;;
49812;SDS011;35706;52.100;5.056;2023-08-06T05:17:37;2.25;;;1.30;;
49812;SDS011;35706;52.100;5.056;2023-08-06T05:18:37;2.33;;;0.98;;
49812;SDS011;35706;52.100;5.056;2023-08-06T05:19:38;1.38;;;0.90;;
49812;SDS011;35706;52.100;5.056;2023-08-06T05:20:41;1.38;;;0.80;;
49812;SDS011;35706;52.100;5.056;2023-08-06T05:21:42;1.10;;;0.63;;
49812;SDS011;35706;52.100;5.056;2023-08-06T05:22:43;2.30;;;0.65;;
49812;SDS011;35706;52.100;5.056;2023-08-06T05:23:43;1.30;;;0.70;;
49812;SDS011;35706;52.100;5.056;2023-08-06T05:24:44;0.90;;;0.55;;
49812;SDS011;35706;52.100;5.056;2023-08-06T05:25:44;10.18;;;8.32;;
49812;SDS011;35706;52.100;5.056;2023-08-06T05:26:45;4.32;;;3.75;;
49812;SDS011;35706;52.100;5.056;2023-08-06T05:27:46;3.25;;;1.00;;
49812;SDS011;35706;52.100;5.056;2023-08-06T05:28:46;1.38;;;0.70;;
49812;SDS011;35706;52.100;5.056;2023-08-06T05:29:47;1.55;;;0.60;;
49812;SDS011;35706;52.100;5.056;2023-08-06T05:30:48;1.40;;;0.70;;
49812;SDS011;35706;52.100;5.056;2023-08-06T05:31:48;1.10;;;0.60;;
49812;SDS011;35706;52.100;5.056;2023-08-06T05:32:48;1.08;;;0.65;;
49812;SDS011;35706;52.100;5.056;2023-08-06T05:33:49;1.88;;;0.50;;
49812;SDS011;35706;52.100;5.056;2023-08-06T05:34:49;0.90;;;0.40;;
49812;SDS011;35706;52.100;5.056;2023-08-06T05:35:50;0.60;;;0.30;;
49812;SDS011;35706;52.100;5.056;2023-08-06T05:36:50;0.70;;;0.40;;
49812;SDS011;35706;52.100;5.056;2023-08-06T05:37:52;1.77;;;0.30;;
49812;SDS011;35706;52.100;5.056;2023-08-06T05:38:53;0.50;;;0.30;;
49812;SDS011;35706;52.100;5.056;2023-08-06T05:39:53;0.60;;;0.30;;
49812;SDS011;35706;52.100;5.056;2023-08-06T05:40:53;1.13;;;0.30;;
49812;SDS011;35706;52.100;5.056;2023-08-06T05:41:54;0.52;;;0.30;;
49812;SDS011;35706;52.100;5.056;2023-08-06T05:42:55;0.70;;;0.30;;
49812;SDS011;35706;52.100;5.056;2023-08-06T05:43:55;1.02;;;0.20;;
49812;SDS011;35706;52.100;5.056;2023-08-06T05:44:55;0.65;;;0.30;;
49812;SDS011;35706;52.100;5.056;2023-08-06T05:45:56;0.55;;;0.30;;
49812;SDS011;35706;52.100;5.056;2023-08-06T05:46:57;0.50;;;0.30;;
49812;SDS011;35706;52.100;5.056;2023-08-06T05:47:57;0.40;;;0.30;;
49812;SDS011;35706;52.100;5.056;2023-08-06T05:48:58;0.50;;;0.30;;
49812;SDS011;35706;52.100;5.056;2023-08-06T05:49:58;0.52;;;0.30;;
49812;SDS011;35706;52.100;5.056;2023-08-06T05:50:59;0.60;;;0.30;;
49812;SDS011;35706;52.100;5.056;2023-08-06T05:51:59;1.52;;;0.25;;
49812;SDS011;35706;52.100;5.056;2023-08-06T05:53:00;0.60;;;0.30;;
49812;SDS011;35706;52.100;5.056;2023-08-06T05:54:00;0.40;;;0.20;;
49812;SDS011;35706;52.100;5.056;2023-08-06T05:55:01;1.35;;;0.20;;
49812;SDS011;35706;52.100;5.056;2023-08-06T05:56:01;0.55;;;0.30;;
49812;SDS011;35706;52.100;5.056;2023-08-06T05:57:01;0.50;;;0.20;;
49812;SDS011;35706;52.100;5.056;2023-08-06T05:58:02;0.45;;;0.20;;
49812;SDS011;35706;52.100;5.056;2023-08-06T05:59:02;0.35;;;0.20;;
49812;SDS011;35706;52.100;5.056;2023-08-06T06:00:03;0.30;;;0.20;;
49812;SDS011;35706;52.100;5.056;2023-08-06T06:01:06;0.40;;;0.20;;
49812;SDS011;35706;52.100;5.056;2023-08-06T06:02:06;0.55;;;0.20;;
49812;SDS011;35706;52.100;5.056;2023-08-06T06:03:06;0.47;;;0.20;;
49812;SDS011;35706;52.100;5.056;2023-08-06T06:04:07;0.52;;;0.20;;
49812;SDS011;35706;52.100;5.056;2023-08-06T06:05:07;2.92;;;0.20;;
49812;SDS011;35706;52.100;5.056;2023-08-06T06:06:08;0.30;;;0.20;;
49812;SDS011;35706;52.100;5.056;2023-08-06T06:07:08;0.50;;;0.22;;
49812;SDS011;35706;52.100;5.056;2023-08-06T06:08:08;1.48;;;0.20;;
49812;SDS011;35706;52.100;5.056;2023-08-06T06:09:09;0.35;;;0.20;;
49812;SDS011;35706;52.100;5.056;2023-08-06T06:10:09;0.47;;;0.20;;
49812;SDS011;35706;52.100;5.056;2023-08-06T06:11:10;0.60;;;0.30;;